sensor_id;sensor_type;location;lat;lon;timestamp;pressure;altitude;pressure_sealevel;temperature;humidity
66887;BME280;67239;51.680;5.976;2024-03-17T00:00:38;102232.16;;;3.94;100.00
66887;BME280;67239;51.680;5.976;2024-03-17T00:03:08;102226.09;;;3.95;100.00
66887;BME280;67239;51.680;5.976;2024-03-17T00:05:37;102236.56;;;3.97;100.00
66887;BME280;67239;51.680;5.976;2024-03-17T00:08:04;102224.41;;;3.97;100.00
66887;BME280;67239;51.680;5.976;2024-03-17T00:10:31;102221.81;;;3.99;100.00
66887;BME280;67239;51.680;5.976;2024-03-17T00:12:58;102220.09;;;3.99;100.00
66887;BME280;67239;51.680;5.976;2024-03-17T00:15:24;102214.88;;;3.99;100.00
66887;BME280;67239;51.680;5.976;2024-03-17T00:17:50;102210.50;;;4.00;100.00
66887;BME280;67239;51.680;5.976;2024-03-17T00:20:17;102214.03;;;4.02;100.00
66887;BME280;67239;51.680;5.976;2024-03-17T00:22:48;102203.63;;;4.03;100.00
66887;BME280;67239;51.680;5.976;2024-03-17T00:25:15;102201.94;;;4.06;100.00
66887;BME280;67239;51.680;5.976;2024-03-17T00:27:41;102202.84;;;4.08;100.00
66887;BME280;67239;51.680;5.976;2024-03-17T00:30:11;102197.63;;;4.09;100.00
66887;BME280;67239;51.680;5.976;2024-03-17T00:32:42;102197.69;;;4.11;100.00
66887;BME280;67239;51.680;5.976;2024-03-17T00:35:09;102206.38;;;4.11;100.00
66887;BME280;67239;51.680;5.976;2024-03-17T00:37:40;102195.06;;;4.11;100.00
66887;BME280;67239;51.680;5.976;2024-03-17T00:40:06;102190.72;;;4.10;100.00
66887;BME280;67239;51.680;5.976;2024-03-17T00:42:33;102189.84;;;4.11;100.00
66887;BME280;67239;51.680;5.976;2024-03-17T00:44:59;102194.16;;;4.09;100.00
66887;BME280;67239;51.680;5.976;2024-03-17T00:47:28;102187.19;;;4.08;100.00
66887;BME280;67239;51.680;5.976;2024-03-17T00:49:55;102183.63;;;4.04;100.00
66887;BME280;67239;51.680;5.976;2024-03-17T00:52:21;102189.72;;;4.03;100.00
66887;BME280;67239;51.680;5.976;2024-03-17T00:54:47;102185.28;;;3.99;100.00
66887;BME280;67239;51.680;5.976;2024-03-17T00:57:14;102187.84;;;3.96;100.00
66887;BME280;67239;51.680;5.976;2024-03-17T00:59:44;102189.47;;;3.91;100.00
66887;BME280;67239;51.680;5.976;2024-03-17T01:02:11;102185.06;;;3.86;100.00
66887;BME280;67239;51.680;5.976;2024-03-17T01:04:43;102182.34;;;3.82;100.00
66887;BME280;67239;51.680;5.976;2024-03-17T01:07:10;102179.63;;;3.77;100.00
66887;BME280;67239;51.680;5.976;2024-03-17T01:09:37;102180.44;;;3.73;100.00
66887;BME280;67239;51.680;5.976;2024-03-17T01:12:04;102177.78;;;3.70;100.00
66887;BME280;67239;51.680;5.976;2024-03-17T01:14:31;102186.44;;;3.69;100.00
66887;BME280;67239;51.680;5.976;2024-03-17T01:17:00;102186.44;;;3.69;100.00
66887;BME280;67239;51.680;5.976;2024-03-17T01:19:31;102171.69;;;3.69;100.00
66887;BME280;67239;51.680;5.976;2024-03-17T01:22:00;102176.00;;;3.67;100.00
66887;BME280;67239;51.680;5.976;2024-03-17T01:24:27;102170.75;;;3.66;100.00
66887;BME280;67239;51.680;5.976;2024-03-17T01:27:00;102174.16;;;3.63;100.00
66887;BME280;67239;51.680;5.976;2024-03-17T01:29:27;102168.00;;;3.60;100.00
66887;BME280;67239;51.680;5.976;2024-03-17T01:31:53;102171.38;;;3.54;100.00
66887;BME280;67239;51.680;5.976;2024-03-17T01:34:20;102166.97;;;3.51;100.00
66887;BME280;67239;51.680;5.976;2024-03-17T01:36:46;102158.28;;;3.51;100.00
66887;BME280;67239;51.680;5.976;2024-03-17T01:39:12;102155.63;;;3.49;100.00
66887;BME280;67239;51.680;5.976;2024-03-17T01:41:39;102158.22;;;3.48;100.00
66887;BME280;67239;51.680;5.976;2024-03-17T01:44:06;102156.38;;;3.44;100.00
66887;BME280;67239;51.680;5.976;2024-03-17T01:46:33;102153.69;;;3.39;100.00
66887;BME280;67239;51.680;5.976;2024-03-17T01:49:00;102150.97;;;3.34;100.00
66887;BME280;67239;51.680;5.976;2024-03-17T01:51:27;102150.91;;;3.31;100.00
66887;BME280;67239;51.680;5.976;2024-03-17T01:53:53;102157.84;;;3.29;100.00
66887;BME280;67239;51.680;5.976;2024-03-17T01:56:22;102161.22;;;3.25;100.00
66887;BME280;67239;51.680;5.976;2024-03-17T01:58:49;102144.63;;;3.21;100.00
66887;BME280;67239;51.680;5.976;2024-03-17T02:01:16;102148.13;;;3.22;100.00
66887;BME280;67239;51.680;5.976;2024-03-17T02:03:42;102136.81;;;3.21;100.00
66887;BME280;67239;51.680;5.976;2024-03-17T02:06:09;102140.28;;;3.22;100.00
66887;BME280;67239;51.680;5.976;2024-03-17T02:08:51;102137.66;;;3.19;100.00
66887;BME280;67239;51.680;5.976;2024-03-17T02:11:30;102133.22;;;3.16;100.00
66887;BME280;67239;51.680;5.976;2024-03-17T02:13:59;102135.72;;;3.11;100.00
66887;BME280;67239;51.680;5.976;2024-03-17T02:16:27;102137.44;;;3.09;100.00
66887;BME280;67239;51.680;5.976;2024-03-17T02:18:57;102134.78;;;3.06;100.00
66887;BME280;67239;51.680;5.976;2024-03-17T02:21:25;102141.66;;;3.03;100.00
66887;BME280;67239;51.680;5.976;2024-03-17T02:23:55;102135.50;;;3.01;100.00
66887;BME280;67239;51.680;5.976;2024-03-17T02:26:24;102126.75;;;2.97;100.00
66887;BME280;67239;51.680;5.976;2024-03-17T02:28:51;102125.00;;;2.96;100.00
66887;BME280;67239;51.680;5.976;2024-03-17T02:31:18;102131.91;;;2.95;100.00
66887;BME280;67239;51.680;5.976;2024-03-17T02:33:45;102134.50;;;2.94;100.00
66887;BME280;67239;51.680;5.976;2024-03-17T02:36:12;102125.81;;;2.93;100.00
66887;BME280;67239;51.680;5.976;2024-03-17T02:38:39;102127.53;;;2.93;100.00
66887;BME280;67239;51.680;5.976;2024-03-17T02:41:24;102129.22;;;2.91;100.00
66887;BME280;67239;51.680;5.976;2024-03-17T02:43:51;102130.09;;;2.91;100.00
66887;BME280;67239;51.680;5.976;2024-03-17T02:46:18;102119.69;;;2.91;100.00
66887;BME280;67239;51.680;5.976;2024-03-17T02:48:47;102118.78;;;2.91;100.00
66887;BME280;67239;51.680;5.976;2024-03-17T02:51:17;102118.78;;;2.91;100.00
66887;BME280;67239;51.680;5.976;2024-03-17T02:53:46;102121.44;;;2.92;100.00
66887;BME280;67239;51.680;5.976;2024-03-17T02:56:14;102117.16;;;2.94;100.00
66887;BME280;67239;51.680;5.976;2024-03-17T02:58:46;102111.16;;;2.99;100.00
66887;BME280;67239;51.680;5.976;2024-03-17T03:01:13;102115.63;;;3.06;100.00
66887;BME280;67239;51.680;5.976;2024-03-17T03:03:40;102103.59;;;3.11;100.00
66887;BME280;67239;51.680;5.976;2024-03-17T03:06:07;102109.84;;;3.19;100.00
66887;BME280;67239;51.680;5.976;2024-03-17T03:08:39;102100.44;;;3.26;100.00
66887;BME280;67239;51.680;5.976;2024-03-17T03:11:08;102096.25;;;3.34;100.00
66887;BME280;67239;51.680;5.976;2024-03-17T03:13:40;102097.34;;;3.46;100.00
66887;BME280;67239;51.680;5.976;2024-03-17T03:16:10;102107.06;;;3.54;100.00
66887;BME280;67239;51.680;5.976;2024-03-17T03:18:38;102096.81;;;3.64;100.00
66887;BME280;67239;51.680;5.976;2024-03-17T03:21:06;102103.06;;;3.73;100.00
66887;BME280;67239;51.680;5.976;2024-03-17T03:23:33;102102.34;;;3.82;100.00
66887;BME280;67239;51.680;5.976;2024-03-17T03:26:01;102105.97;;;3.91;100.00
66887;BME280;67239;51.680;5.976;2024-03-17T03:28:32;102103.50;;;3.98;100.00
66887;BME280;67239;51.680;5.976;2024-03-17T03:30:59;102105.38;;;4.06;100.00
66887;BME280;67239;51.680;5.976;2024-03-17T03:33:26;102101.13;;;4.12;100.00
66887;BME280;67239;51.680;5.976;2024-03-17T03:35:53;102104.72;;;4.19;100.00
66887;BME280;67239;51.680;5.976;2024-03-17T03:38:21;102103.97;;;4.26;100.00
66887;BME280;67239;51.680;5.976;2024-03-17T03:40:49;102104.94;;;4.33;100.00
66887;BME280;67239;51.680;5.976;2024-03-17T03:43:15;102107.63;;;4.39;100.00
66887;BME280;67239;51.680;5.976;2024-03-17T03:45:42;102109.47;;;4.45;100.00
66887;BME280;67239;51.680;5.976;2024-03-17T03:48:09;102099.94;;;4.48;100.00
66887;BME280;67239;51.680;5.976;2024-03-17T03:50:37;102100.06;;;4.55;100.00
66887;BME280;67239;51.680;5.976;2024-03-17T03:53:04;102102.75;;;4.61;100.00
66887;BME280;67239;51.680;5.976;2024-03-17T03:55:32;102097.56;;;4.64;100.00
66887;BME280;67239;51.680;5.976;2024-03-17T03:57:58;102087.19;;;4.69;100.00
66887;BME280;67239;51.680;5.976;2024-03-17T04:00:24;102079.41;;;4.72;100.00
66887;BME280;67239;51.680;5.976;2024-03-17T04:02:55;102081.19;;;4.74;100.00
66887;BME280;67239;51.680;5.976;2024-03-17T04:05:21;102082.94;;;4.75;100.00
66887;BME280;67239;51.680;5.976;2024-03-17T04:07:48;102074.25;;;4.78;100.00
66887;BME280;67239;51.680;5.976;2024-03-17T04:10:15;102072.56;;;4.81;100.00
66887;BME280;67239;51.680;5.976;2024-03-17T04:12:44;102069.97;;;4.83;100.00
66887;BME280;67239;51.680;5.976;2024-03-17T04:15:11;102070.84;;;4.85;100.00
66887;BME280;67239;51.680;5.976;2024-03-17T04:17:37;102063.06;;;4.88;100.00
66887;BME280;67239;51.680;5.976;2024-03-17T04:20:05;102068.28;;;4.90;100.00
66887;BME280;67239;51.680;5.976;2024-03-17T04:22:36;102070.94;;;4.91;100.00
66887;BME280;67239;51.680;5.976;2024-03-17T04:25:03;102057.00;;;4.91;100.00
66887;BME280;67239;51.680;5.976;2024-03-17T04:27:29;102055.28;;;4.93;100.00
66887;BME280;67239;51.680;5.976;2024-03-17T04:29:57;102056.19;;;4.95;100.00
66887;BME280;67239;51.680;5.976;2024-03-17T04:32:25;102053.56;;;4.96;100.00
66887;BME280;67239;51.680;5.976;2024-03-17T04:34:55;102044.03;;;4.98;100.00
66887;BME280;67239;51.680;5.976;2024-03-17T04:37:21;102035.34;;;5.00;100.00
66887;BME280;67239;51.680;5.976;2024-03-17T04:39:48;102044.03;;;5.00;100.00
66887;BME280;67239;51.680;5.976;2024-03-17T04:42:15;102044.03;;;5.00;100.00
66887;BME280;67239;51.680;5.976;2024-03-17T04:44:46;102042.31;;;5.02;100.00
66887;BME280;67239;51.680;5.976;2024-03-17T04:47:13;102052.78;;;5.02;100.00
66887;BME280;67239;51.680;5.976;2024-03-17T04:49:43;102046.66;;;5.00;100.00
66887;BME280;67239;51.680;5.976;2024-03-17T04:52:11;102045.78;;;4.98;100.00
66887;BME280;67239;51.680;5.976;2024-03-17T04:54:38;102037.91;;;4.96;100.00
66887;BME280;67239;51.680;5.976;2024-03-17T04:57:07;102039.59;;;4.94;100.00
66887;BME280;67239;51.680;5.976;2024-03-17T04:59:34;102036.13;;;4.94;100.00
66887;BME280;67239;51.680;5.976;2024-03-17T05:02:01;102030.00;;;4.92;100.00
66887;BME280;67239;51.680;5.976;2024-03-17T05:04:29;102033.50;;;4.92;100.00
66887;BME280;67239;51.680;5.976;2024-03-17T05:06:56;102027.38;;;4.92;100.00
66887;BME280;67239;51.680;5.976;2024-03-17T05:09:22;102028.25;;;4.91;100.00
66887;BME280;67239;51.680;5.976;2024-03-17T05:11:52;102033.47;;;4.88;100.00
66887;BME280;67239;51.680;5.976;2024-03-17T05:14:19;102038.66;;;4.86;100.00
66887;BME280;67239;51.680;5.976;2024-03-17T05:16:48;102034.28;;;4.85;100.00
66887;BME280;67239;51.680;5.976;2024-03-17T05:19:18;102029.91;;;4.84;100.00
66887;BME280;67239;51.680;5.976;2024-03-17T05:21:45;102030.78;;;4.85;100.00
66887;BME280;67239;51.680;5.976;2024-03-17T05:24:12;102036.03;;;4.85;100.00
66887;BME280;67239;51.680;5.976;2024-03-17T05:26:39;102032.56;;;4.86;100.00
66887;BME280;67239;51.680;5.976;2024-03-17T05:29:05;102037.78;;;4.87;100.00
66887;BME280;67239;51.680;5.976;2024-03-17T05:31:32;102035.16;;;4.87;100.00
66887;BME280;67239;51.680;5.976;2024-03-17T05:33:58;102035.16;;;4.87;100.00
66887;BME280;67239;51.680;5.976;2024-03-17T05:36:24;102029.03;;;4.85;100.00
66887;BME280;67239;51.680;5.976;2024-03-17T05:38:51;102039.50;;;4.85;100.00
66887;BME280;67239;51.680;5.976;2024-03-17T05:41:17;102034.28;;;4.85;100.00
66887;BME280;67239;51.680;5.976;2024-03-17T05:43:43;102033.41;;;4.85;100.00
66887;BME280;67239;51.680;5.976;2024-03-17T05:46:11;102036.00;;;4.83;100.00
66887;BME280;67239;51.680;5.976;2024-03-17T05:48:39;102029.00;;;4.80;100.00
66887;BME280;67239;51.680;5.976;2024-03-17T05:51:11;102036.81;;;4.80;100.00
66887;BME280;67239;51.680;5.976;2024-03-17T05:53:39;102036.81;;;4.80;100.00
66887;BME280;67239;51.680;5.976;2024-03-17T05:56:10;102044.72;;;4.82;100.00
66887;BME280;67239;51.680;5.976;2024-03-17T05:58:39;102042.97;;;4.84;100.00
66887;BME280;67239;51.680;5.976;2024-03-17T06:01:06;102034.31;;;4.87;100.00
66887;BME280;67239;51.680;5.976;2024-03-17T06:03:35;102039.56;;;4.90;100.00
66887;BME280;67239;51.680;5.976;2024-03-17T06:06:04;102032.66;;;4.93;100.00
66887;BME280;67239;51.680;5.976;2024-03-17T06:08:37;102025.75;;;5.00;100.00
66887;BME280;67239;51.680;5.976;2024-03-17T06:11:05;102017.94;;;5.05;100.00
66887;BME280;67239;51.680;5.976;2024-03-17T06:13:34;102020.66;;;5.11;100.00
66887;BME280;67239;51.680;5.976;2024-03-17T06:16:03;102025.97;;;5.19;100.00
66887;BME280;67239;51.680;5.976;2024-03-17T06:18:31;102033.03;;;5.27;100.00
66887;BME280;67239;51.680;5.976;2024-03-17T06:20:58;102027.03;;;5.36;100.00
66887;BME280;67239;51.680;5.976;2024-03-17T06:23:24;102023.59;;;5.45;100.00
66887;BME280;67239;51.680;5.976;2024-03-17T06:25:54;102024.59;;;5.55;100.00
66887;BME280;67239;51.680;5.976;2024-03-17T06:28:21;102020.34;;;5.66;100.00
66887;BME280;67239;51.680;5.976;2024-03-17T06:30:57;102019.50;;;5.75;100.00
66887;BME280;67239;51.680;5.976;2024-03-17T06:33:28;102012.63;;;5.85;100.00
66887;BME280;67239;51.680;5.976;2024-03-17T06:36:05;102018.84;;;5.95;100.00
66887;BME280;67239;51.680;5.976;2024-03-17T06:38:33;102021.53;;;6.02;100.00
66887;BME280;67239;51.680;5.976;2024-03-17T06:40:59;102020.72;;;6.13;100.00
66887;BME280;67239;51.680;5.976;2024-03-17T06:43:25;102017.28;;;6.18;100.00
66887;BME280;67239;51.680;5.976;2024-03-17T06:45:59;102018.19;;;6.24;100.00
66887;BME280;67239;51.680;5.976;2024-03-17T06:48:27;102020.81;;;6.27;100.00
66887;BME280;67239;51.680;5.976;2024-03-17T06:50:54;102013.84;;;6.29;100.00
66887;BME280;67239;51.680;5.976;2024-03-17T06:53:22;102017.34;;;6.32;100.00
66887;BME280;67239;51.680;5.976;2024-03-17T06:55:57;102020.00;;;6.35;100.00
66887;BME280;67239;51.680;5.976;2024-03-17T06:58:28;102016.53;;;6.35;100.00
66887;BME280;67239;51.680;5.976;2024-03-17T07:00:59;102007.78;;;6.36;100.00
66887;BME280;67239;51.680;5.976;2024-03-17T07:03:30;102002.56;;;6.39;100.00
66887;BME280;67239;51.680;5.976;2024-03-17T07:05:59;102007.00;;;6.48;100.00
66887;BME280;67239;51.680;5.976;2024-03-17T07:08:31;102014.06;;;6.63;100.00
66887;BME280;67239;51.680;5.976;2024-03-17T07:13:35;102014.16;;;6.92;100.00
66887;BME280;67239;51.680;5.976;2024-03-17T07:16:04;102021.22;;;7.04;100.00
66887;BME280;67239;51.680;5.976;2024-03-17T07:18:32;102023.84;;;7.15;100.00
66887;BME280;67239;51.680;5.976;2024-03-17T07:21:00;102029.13;;;7.21;100.00
66887;BME280;67239;51.680;5.976;2024-03-17T07:23:31;102023.00;;;7.24;100.00
66887;BME280;67239;51.680;5.976;2024-03-17T07:26:00;102033.53;;;7.27;100.00
66887;BME280;67239;51.680;5.976;2024-03-17T07:28:28;102026.50;;;7.27;100.00
66887;BME280;67239;51.680;5.976;2024-03-17T07:30:56;102027.41;;;7.36;100.00
66887;BME280;67239;51.680;5.976;2024-03-17T07:33:24;102024.81;;;7.53;100.00
66887;BME280;67239;51.680;5.976;2024-03-17T07:35:54;102026.59;;;7.71;100.00
66887;BME280;67239;51.680;5.976;2024-03-17T07:38:29;102036.22;;;7.90;100.00
66887;BME280;67239;51.680;5.976;2024-03-17T07:41:00;102028.31;;;8.01;100.00
66887;BME280;67239;51.680;5.976;2024-03-17T07:43:29;102028.31;;;8.15;100.00
66887;BME280;67239;51.680;5.976;2024-03-17T07:46:05;102036.19;;;8.34;100.00
66887;BME280;67239;51.680;5.976;2024-03-17T07:48:42;102030.06;;;8.49;100.00
66887;BME280;67239;51.680;5.976;2024-03-17T07:51:12;102037.88;;;8.61;99.01
66887;BME280;67239;51.680;5.976;2024-03-17T07:53:41;102044.00;;;8.68;98.79
66887;BME280;67239;51.680;5.976;2024-03-17T07:56:10;102043.09;;;8.78;99.21
66887;BME280;67239;51.680;5.976;2024-03-17T07:58:39;102043.94;;;8.88;98.84
66887;BME280;67239;51.680;5.976;2024-03-17T08:01:09;102033.38;;;8.91;98.10
66887;BME280;67239;51.680;5.976;2024-03-17T08:03:41;102033.38;;;8.91;97.06
66887;BME280;67239;51.680;5.976;2024-03-17T08:06:11;102030.75;;;8.94;96.95
66887;BME280;67239;51.680;5.976;2024-03-17T08:08:37;102040.41;;;8.92;96.58
66887;BME280;67239;51.680;5.976;2024-03-17T08:11:04;102039.53;;;8.93;96.77
66887;BME280;67239;51.680;5.976;2024-03-17T08:13:31;102025.47;;;8.99;97.13
66887;BME280;67239;51.680;5.976;2024-03-17T08:16:03;102017.50;;;9.13;97.18
66887;BME280;67239;51.680;5.976;2024-03-17T08:18:34;102028.00;;;9.24;95.78
66887;BME280;67239;51.680;5.976;2024-03-17T08:21:01;102034.94;;;9.34;94.54
66887;BME280;67239;51.680;5.976;2024-03-17T08:23:30;102026.97;;;9.42;93.73
66887;BME280;67239;51.680;5.976;2024-03-17T08:25:58;102026.91;;;9.53;93.47
66887;BME280;67239;51.680;5.976;2024-03-17T08:28:27;102023.31;;;9.68;93.44
66887;BME280;67239;51.680;5.976;2024-03-17T08:30:59;102021.44;;;9.84;92.84
66887;BME280;67239;51.680;5.976;2024-03-17T08:33:27;102026.63;;;9.91;91.25
66887;BME280;67239;51.680;5.976;2024-03-17T08:36:02;102019.63;;;9.90;91.09
66887;BME280;67239;51.680;5.976;2024-03-17T08:38:31;102019.59;;;9.92;91.02
66887;BME280;67239;51.680;5.976;2024-03-17T08:41:04;102016.91;;;9.97;91.42
66887;BME280;67239;51.680;5.976;2024-03-17T08:43:35;102016.84;;;10.03;91.53
66887;BME280;67239;51.680;5.976;2024-03-17T08:46:09;102010.66;;;10.10;90.83
66887;BME280;67239;51.680;5.976;2024-03-17T08:48:37;102009.69;;;10.20;89.99
66887;BME280;67239;51.680;5.976;2024-03-17T08:51:06;101998.19;;;10.26;90.48
66887;BME280;67239;51.680;5.976;2024-03-17T08:53:34;101997.22;;;10.35;90.41
66887;BME280;67239;51.680;5.976;2024-03-17T08:56:03;101997.13;;;10.44;90.88
66887;BME280;67239;51.680;5.976;2024-03-17T08:58:29;102000.59;;;10.49;90.27
66887;BME280;67239;51.680;5.976;2024-03-17T09:00:55;101999.66;;;10.53;90.23
66887;BME280;67239;51.680;5.976;2024-03-17T09:03:22;101999.59;;;10.60;88.92
66887;BME280;67239;51.680;5.976;2024-03-17T09:05:48;102004.88;;;10.60;88.37
66887;BME280;67239;51.680;5.976;2024-03-17T09:08:21;101996.94;;;10.61;88.64
66887;BME280;67239;51.680;5.976;2024-03-17T09:10:53;101995.16;;;10.63;88.48
66887;BME280;67239;51.680;5.976;2024-03-17T09:13:29;101996.03;;;10.65;88.43
66887;BME280;67239;51.680;5.976;2024-03-17T09:16:10;101997.72;;;10.69;89.18
66887;BME280;67239;51.680;5.976;2024-03-17T09:18:37;101987.94;;;10.79;89.45
66887;BME280;67239;51.680;5.976;2024-03-17T09:21:08;101988.69;;;10.91;89.25
66887;BME280;67239;51.680;5.976;2024-03-17T09:23:34;101987.66;;;11.01;89.03
66887;BME280;67239;51.680;5.976;2024-03-17T09:26:02;101987.56;;;11.07;88.74
66887;BME280;67239;51.680;5.976;2024-03-17T09:28:30;101986.53;;;11.17;88.97
66887;BME280;67239;51.680;5.976;2024-03-17T09:31:05;101986.41;;;11.28;88.87
66887;BME280;67239;51.680;5.976;2024-03-17T09:33:37;101983.56;;;11.39;88.45
66887;BME280;67239;51.680;5.976;2024-03-17T09:36:08;101981.69;;;11.49;87.24
66887;BME280;67239;51.680;5.976;2024-03-17T09:38:38;101985.97;;;11.56;86.91
66887;BME280;67239;51.680;5.976;2024-03-17T09:41:06;101982.28;;;11.65;86.49
66887;BME280;67239;51.680;5.976;2024-03-17T09:43:34;101972.47;;;11.73;86.97
66887;BME280;67239;51.680;5.976;2024-03-17T09:46:05;101988.94;;;11.89;86.71
66887;BME280;67239;51.680;5.976;2024-03-17T09:48:32;101990.47;;;12.04;86.88
66887;BME280;67239;51.680;5.976;2024-03-17T09:51:00;101991.94;;;12.19;86.04
66887;BME280;67239;51.680;5.976;2024-03-17T09:53:32;101991.69;;;12.33;84.41
66887;BME280;67239;51.680;5.976;2024-03-17T09:56:10;101985.28;;;12.45;83.49
66887;BME280;67239;51.680;5.976;2024-03-17T09:58:38;101983.25;;;12.58;82.82
66887;BME280;67239;51.680;5.976;2024-03-17T10:01:05;101981.19;;;12.72;82.46
66887;BME280;67239;51.680;5.976;2024-03-17T10:06:09;101978.84;;;12.99;82.43
66887;BME280;67239;51.680;5.976;2024-03-17T10:08:45;101975.97;;;13.10;80.40
66887;BME280;67239;51.680;5.976;2024-03-17T10:11:15;101976.66;;;13.18;80.15
66887;BME280;67239;51.680;5.976;2024-03-17T10:13:44;101976.44;;;13.28;80.54
66887;BME280;67239;51.680;5.976;2024-03-17T10:16:22;101979.78;;;13.36;79.36
66887;BME280;67239;51.680;5.976;2024-03-17T10:18:51;101977.84;;;13.44;80.34
66887;BME280;67239;51.680;5.976;2024-03-17T10:21:38;101980.25;;;13.55;79.36
66887;BME280;67239;51.680;5.976;2024-03-17T10:24:23;101975.56;;;13.65;78.79
66887;BME280;67239;51.680;5.976;2024-03-17T10:26:55;101975.38;;;13.73;78.26
66887;BME280;67239;51.680;5.976;2024-03-17T10:29:26;101982.34;;;13.77;77.83
66887;BME280;67239;51.680;5.976;2024-03-17T10:31:56;101980.44;;;13.84;78.58
66887;BME280;67239;51.680;5.976;2024-03-17T10:34:28;101973.16;;;13.90;76.95
66887;BME280;67239;51.680;5.976;2024-03-17T10:37:13;101973.91;;;13.95;76.37
66887;BME280;67239;51.680;5.976;2024-03-17T10:39:44;101974.59;;;14.04;75.59
66887;BME280;67239;51.680;5.976;2024-03-17T10:42:11;101967.34;;;14.10;74.36
66887;BME280;67239;51.680;5.976;2024-03-17T10:44:42;101968.03;;;14.17;74.22
66887;BME280;67239;51.680;5.976;2024-03-17T10:47:24;101967.78;;;14.26;72.31
66887;BME280;67239;51.680;5.976;2024-03-17T10:49:53;101958.72;;;14.34;71.51
66887;BME280;67239;51.680;5.976;2024-03-17T10:52:22;101967.59;;;14.34;71.53
66887;BME280;67239;51.680;5.976;2024-03-17T10:54:52;101963.84;;;14.40;71.78
66887;BME280;67239;51.680;5.976;2024-03-17T10:57:44;101966.09;;;14.55;71.63
66887;BME280;67239;51.680;5.976;2024-03-17T11:00:16;101959.72;;;14.61;72.32
66887;BME280;67239;51.680;5.976;2024-03-17T11:02:45;101962.09;;;14.72;70.70
66887;BME280;67239;51.680;5.976;2024-03-17T11:05:24;101961.91;;;14.78;71.14
66887;BME280;67239;51.680;5.976;2024-03-17T11:07:56;101951.88;;;14.88;71.40
66887;BME280;67239;51.680;5.976;2024-03-17T11:10:31;101952.47;;;14.98;69.38
66887;BME280;67239;51.680;5.976;2024-03-17T11:13:00;101953.47;;;14.94;70.81
66887;BME280;67239;51.680;5.976;2024-03-17T11:20:37;101953.44;;;14.95;70.40
66887;BME280;67239;51.680;5.976;2024-03-17T11:23:07;101952.56;;;14.95;71.44
66887;BME280;67239;51.680;5.976;2024-03-17T11:28:02;101937.53;;;14.94;68.78
66887;BME280;67239;51.680;5.976;2024-03-17T11:41:40;101942.09;;;14.28;69.71
66887;BME280;67239;51.680;5.976;2024-03-17T11:47:06;101937.50;;;14.02;70.90
66887;BME280;67239;51.680;5.976;2024-03-17T11:49:40;101936.81;;;13.95;72.12
66887;BME280;67239;51.680;5.976;2024-03-17T11:52:11;101928.81;;;13.97;72.70
66887;BME280;67239;51.680;5.976;2024-03-17T11:54:43;101935.66;;;14.04;73.16
66887;BME280;67239;51.680;5.976;2024-03-17T11:57:25;101923.78;;;14.19;73.09
66887;BME280;67239;51.680;5.976;2024-03-17T11:59:54;101926.19;;;14.28;73.07
66887;BME280;67239;51.680;5.976;2024-03-17T12:02:22;101925.91;;;14.38;72.83
66887;BME280;67239;51.680;5.976;2024-03-17T12:05:00;101917.69;;;14.47;72.88
66887;BME280;67239;51.680;5.976;2024-03-17T12:07:27;101915.75;;;14.52;71.41
66887;BME280;67239;51.680;5.976;2024-03-17T12:09:56;101914.06;;;14.50;71.74
66887;BME280;67239;51.680;5.976;2024-03-17T12:12:25;101913.16;;;14.51;72.16
66887;BME280;67239;51.680;5.976;2024-03-17T12:15:02;101911.19;;;14.57;72.99
66887;BME280;67239;51.680;5.976;2024-03-17T12:17:31;101902.97;;;14.65;72.59
66887;BME280;67239;51.680;5.976;2024-03-17T12:19:58;101907.31;;;14.69;71.36
66887;BME280;67239;51.680;5.976;2024-03-17T12:22:26;101903.75;;;14.70;71.59
66887;BME280;67239;51.680;5.976;2024-03-17T12:24:55;101897.47;;;14.73;71.00
66887;BME280;67239;51.680;5.976;2024-03-17T12:27:23;101901.00;;;14.73;71.39
66887;BME280;67239;51.680;5.976;2024-03-17T12:29:54;101887.69;;;14.75;70.56
66887;BME280;67239;51.680;5.976;2024-03-17T12:32:25;101887.63;;;14.77;71.18
66887;BME280;67239;51.680;5.976;2024-03-17T12:34:53;101883.06;;;14.82;71.65
66887;BME280;67239;51.680;5.976;2024-03-17T12:37:23;101881.09;;;14.87;70.46
66887;BME280;67239;51.680;5.976;2024-03-17T12:40:03;101883.06;;;14.82;69.98
66887;BME280;67239;51.680;5.976;2024-03-17T12:42:30;101884.94;;;14.78;70.46
66887;BME280;67239;51.680;5.976;2024-03-17T12:45:01;101872.59;;;14.77;70.49
66887;BME280;67239;51.680;5.976;2024-03-17T12:47:30;101884.06;;;14.78;70.59
66887;BME280;67239;51.680;5.976;2024-03-17T12:49:59;101875.16;;;14.80;70.63
66887;BME280;67239;51.680;5.976;2024-03-17T12:52:30;101874.25;;;14.80;70.31
66887;BME280;67239;51.680;5.976;2024-03-17T12:55:05;101861.13;;;14.75;69.68
66887;BME280;67239;51.680;5.976;2024-03-17T13:01:02;101849.09;;;14.63;70.35
66887;BME280;67239;51.680;5.976;2024-03-17T13:03:31;101851.91;;;14.58;70.12
66887;BME280;67239;51.680;5.976;2024-03-17T13:06:03;101846.59;;;14.58;70.37
66887;BME280;67239;51.680;5.976;2024-03-17T13:08:33;101847.50;;;14.57;70.40
66887;BME280;67239;51.680;5.976;2024-03-17T13:11:00;101841.53;;;14.51;69.72
66887;BME280;67239;51.680;5.976;2024-03-17T13:13:26;101829.53;;;14.37;70.38
66887;BME280;67239;51.680;5.976;2024-03-17T13:15:53;101834.16;;;14.31;71.22
66887;BME280;67239;51.680;5.976;2024-03-17T13:18:19;101834.25;;;14.27;71.59
66887;BME280;67239;51.680;5.976;2024-03-17T13:20:49;101832.56;;;14.25;71.62
66887;BME280;67239;51.680;5.976;2024-03-17T13:23:16;101826.53;;;14.20;71.72
66887;BME280;67239;51.680;5.976;2024-03-17T13:25:42;101831.97;;;14.15;72.00
66887;BME280;67239;51.680;5.976;2024-03-17T13:28:13;101827.63;;;14.12;72.35
66887;BME280;67239;51.680;5.976;2024-03-17T13:30:39;101816.25;;;14.09;72.02